Time;durP1;ratioP1;P1;durP2;ratioP2;P2;SDS_P1;SDS_P2;PMS_P1;PMS_P2;Temp;Humidity;BMP_temperature;BMP_pressure;BME280_temperature;BME280_humidity;BME280_pressure;Samples;Min_cycle;Max_cycle;Signal;HPM_P1;HPM_P2
2022/04/24 00:00:38;;;;;;;11.35;8.40;;;9.90;99.90;;;;;;4878289;29;20041;-77
2022/04/24 00:03:04;;;;;;;13.75;8.07;;;9.90;99.90;;;;;;4879652;29;20145;-77
2022/04/24 00:05:29;;;;;;;10.30;7.18;;;9.80;99.90;;;;;;4879607;29;20578;-77
2022/04/24 00:07:55;;;;;;;13.63;8.63;;;9.80;99.90;;;;;;4879509;29;20049;-77
2022/04/24 00:10:21;;;;;;;12.95;8.15;;;9.90;99.90;;;;;;4862749;29;20061;-77
2022/04/24 00:12:48;;;;;;;12.07;8.00;;;9.80;99.90;;;;;;4879747;29;20394;-77
2022/04/24 00:15:14;;;;;;;10.52;7.72;;;9.80;99.90;;;;;;4866176;29;20049;-76
2022/04/24 00:17:40;;;;;;;11.82;8.65;;;9.80;99.90;;;;;;4882973;29;20069;-76
2022/04/24 00:20:06;;;;;;;13.70;8.40;;;9.80;99.90;;;;;;4881696;29;20481;-76
2022/04/24 00:22:31;;;;;;;11.93;8.00;;;9.80;99.90;;;;;;4882564;29;20469;-76
2022/04/24 00:24:57;;;;;;;11.43;8.27;;;9.80;99.90;;;;;;4882912;29;20080;-76
2022/04/24 00:27:22;;;;;;;12.93;7.80;;;9.80;99.90;;;;;;4881667;29;20052;-76
2022/04/24 00:29:48;;;;;;;12.75;8.13;;;9.80;99.90;;;;;;4881456;29;20462;-76
2022/04/24 00:32:14;;;;;;;11.70;7.95;;;9.80;99.90;;;;;;4866550;29;20094;-76
2022/04/24 00:34:40;;;;;;;12.57;7.75;;;9.70;99.90;;;;;;4882756;29;20398;-76
2022/04/24 00:37:06;;;;;;;11.55;8.35;;;9.80;99.90;;;;;;4882603;29;20060;-76
2022/04/24 00:39:32;;;;;;;11.70;8.00;;;9.70;99.90;;;;;;4882705;29;20048;-76
2022/04/24 00:41:57;;;;;;;11.15;8.63;;;9.70;99.90;;;;;;4883103;29;20037;-76
2022/04/24 00:44:23;;;;;;;11.55;7.88;;;9.60;99.90;;;;;;4881204;29;20065;-76
2022/04/24 00:47:09;;;;;;;14.25;8.48;;;9.70;99.90;;;;;;4882577;29;20474;-76
2022/04/24 00:49:35;;;;;;;10.38;8.07;;;9.70;99.90;;;;;;4865695;29;20088;-76
2022/04/24 00:52:02;;;;;;;13.02;7.95;;;9.70;99.90;;;;;;4882520;29;20106;-76
2022/04/24 00:54:28;;;;;;;14.13;8.00;;;9.70;99.90;;;;;;4882668;29;20057;-76
2022/04/24 00:56:54;;;;;;;11.50;8.68;;;9.60;99.90;;;;;;4882219;29;20053;-76
2022/04/24 00:59:19;;;;;;;11.68;8.23;;;9.70;99.90;;;;;;4882302;29;20040;-76
2022/04/24 01:01:45;;;;;;;12.57;8.50;;;9.60;99.90;;;;;;4865518;29;20379;-76
2022/04/24 01:04:12;;;;;;;13.52;8.50;;;9.70;99.90;;;;;;4882165;29;20044;-76
2022/04/24 01:06:40;;;;;;;13.10;8.35;;;9.70;99.90;;;;;;4865264;29;20048;-76
2022/04/24 01:09:20;;;;;;;15.10;8.98;;;9.70;99.90;;;;;;4865514;29;20553;-76
2022/04/24 01:11:53;;;;;;;12.38;8.35;;;9.70;99.90;;;;;;4865547;29;20511;-76
2022/04/24 01:14:21;;;;;;;14.27;8.88;;;9.70;99.90;;;;;;4882150;29;20364;-76
2022/04/24 01:16:48;;;;;;;14.45;8.27;;;9.70;99.90;;;;;;4881799;29;20049;-76
2022/04/24 01:19:15;;;;;;;13.77;8.02;;;9.60;99.90;;;;;;4865082;29;20049;-76
2022/04/24 01:21:45;;;;;;;13.30;9.05;;;9.70;99.90;;;;;;4881930;29;20143;-76
2022/04/24 01:24:12;;;;;;;12.07;7.78;;;9.60;99.90;;;;;;4881352;29;20045;-76
2022/04/24 01:26:38;;;;;;;12.35;8.45;;;9.60;99.90;;;;;;4881423;29;20092;-76
2022/04/24 01:29:05;;;;;;;11.80;8.70;;;9.60;99.90;;;;;;4881705;29;20049;-76
2022/04/24 01:31:31;;;;;;;13.90;9.20;;;9.70;99.90;;;;;;4865304;29;20072;-76
2022/04/24 01:33:57;;;;;;;12.50;9.05;;;9.60;99.90;;;;;;4865169;29;20048;-76
2022/04/24 01:36:23;;;;;;;14.77;9.35;;;9.60;99.90;;;;;;4881580;29;20454;-76
2022/04/24 01:38:49;;;;;;;10.73;7.50;;;9.60;99.90;;;;;;4881673;29;20128;-76
2022/04/24 01:41:15;;;;;;;11.98;8.93;;;9.60;99.90;;;;;;4865084;29;20044;-76
2022/04/24 01:43:42;;;;;;;10.73;8.90;;;9.60;99.90;;;;;;4881086;29;20450;-76
2022/04/24 01:46:08;;;;;;;16.13;8.90;;;9.60;99.90;;;;;;4881514;29;20059;-76
2022/04/24 01:48:34;;;;;;;13.60;9.10;;;9.60;99.90;;;;;;4881473;29;20105;-76
2022/04/24 01:51:01;;;;;;;12.13;7.80;;;9.60;99.90;;;;;;4881611;29;20478;-76
2022/04/24 01:53:28;;;;;;;12.25;8.18;;;9.60;99.90;;;;;;4864613;29;20089;-76
2022/04/24 01:55:58;;;;;;;10.73;8.27;;;9.70;99.90;;;;;;4881356;29;20049;-76
2022/04/24 01:58:25;;;;;;;10.70;8.55;;;9.70;99.90;;;;;;4881239;29;20041;-76
2022/04/24 02:00:51;;;;;;;11.68;8.73;;;9.60;99.90;;;;;;4879822;29;20068;-76
2022/04/24 02:03:17;;;;;;;12.50;8.75;;;9.70;99.90;;;;;;4881160;29;20045;-76
2022/04/24 02:05:42;;;;;;;11.88;9.13;;;9.70;99.90;;;;;;4881075;29;20102;-76
2022/04/24 02:08:08;;;;;;;11.68;8.60;;;9.70;99.90;;;;;;4864566;29;20055;-76
2022/04/24 02:10:33;;;;;;;12.93;7.82;;;9.70;99.90;;;;;;4880949;29;20037;-76
2022/04/24 02:12:59;;;;;;;12.95;8.75;;;9.70;99.90;;;;;;4879758;29;20386;-76
2022/04/24 02:15:25;;;;;;;11.43;8.70;;;9.60;99.90;;;;;;4879848;29;20048;-76
2022/04/24 02:17:50;;;;;;;14.55;9.15;;;9.60;99.90;;;;;;4879657;29;20463;-76
2022/04/24 02:20:16;;;;;;;12.32;8.43;;;9.60;99.90;;;;;;4864416;29;20048;-76
2022/04/24 02:22:41;;;;;;;14.75;9.45;;;9.60;99.90;;;;;;4880908;29;20053;-76
2022/04/24 02:25:07;;;;;;;14.18;8.55;;;9.60;99.90;;;;;;4880703;29;20370;-76
2022/04/24 02:27:34;;;;;;;14.98;8.40;;;9.60;99.90;;;;;;4880699;29;20057;-76
2022/04/24 02:30:00;;;;;;;13.13;9.07;;;9.60;99.90;;;;;;4880722;29;20053;-76
2022/04/24 02:32:25;;;;;;;14.38;8.70;;;9.50;99.90;;;;;;4863877;29;20482;-76
2022/04/24 02:34:51;;;;;;;12.25;8.52;;;9.50;99.90;;;;;;4879334;29;20053;-76
2022/04/24 02:37:17;;;;;;;13.57;8.63;;;9.50;99.90;;;;;;4879408;29;20045;-76
2022/04/24 02:39:42;;;;;;;10.63;8.32;;;9.50;99.90;;;;;;4880521;29;20061;-76
2022/04/24 02:42:08;;;;;;;15.20;7.82;;;9.40;99.90;;;;;;4879237;29;20041;-76
2022/04/24 02:44:34;;;;;;;10.82;7.93;;;9.40;99.90;;;;;;4880123;29;20057;-76
2022/04/24 02:47:00;;;;;;;11.93;8.25;;;9.50;99.90;;;;;;4880642;29;20037;-76
2022/04/24 02:49:26;;;;;;;12.90;8.00;;;9.50;99.90;;;;;;4880334;29;20041;-76
2022/04/24 02:51:51;;;;;;;12.20;8.45;;;9.50;99.90;;;;;;4880259;29;20060;-76
2022/04/24 02:54:17;;;;;;;14.48;7.80;;;9.50;99.90;;;;;;4880337;29;20045;-76
2022/04/24 02:56:43;;;;;;;11.88;8.40;;;9.50;99.90;;;;;;4880218;29;20405;-76
2022/04/24 02:59:09;;;;;;;12.93;7.97;;;9.50;99.90;;;;;;4880314;29;20076;-76
2022/04/24 03:01:34;;;;;;;12.40;8.10;;;9.50;99.90;;;;;;4863679;29;20131;-76
2022/04/24 03:04:00;;;;;;;12.52;8.55;;;9.50;99.90;;;;;;4880269;29;20394;-76
2022/04/24 03:06:26;;;;;;;12.52;7.25;;;9.50;99.90;;;;;;4880097;29;20088;-76
2022/04/24 03:08:52;;;;;;;13.52;8.25;;;9.50;99.90;;;;;;4878946;29;20060;-76
2022/04/24 03:11:17;;;;;;;12.25;6.47;;;9.50;99.90;;;;;;4879937;29;20057;-76
2022/04/24 03:13:43;;;;;;;11.95;7.38;;;9.50;99.90;;;;;;4878887;29;20053;-76
2022/04/24 03:16:09;;;;;;;12.98;7.10;;;9.50;99.90;;;;;;4880009;29;20045;-76
2022/04/24 03:18:35;;;;;;;12.95;6.80;;;9.50;99.90;;;;;;4878709;29;20053;-76
2022/04/24 03:21:01;;;;;;;11.52;6.55;;;9.50;99.90;;;;;;4863462;29;20055;-76
2022/04/24 03:23:27;;;;;;;10.65;6.70;;;9.50;99.90;;;;;;4879950;29;20044;-76
2022/04/24 03:25:53;;;;;;;9.15;6.30;;;9.50;99.90;;;;;;4879874;29;20041;-76
2022/04/24 03:28:18;;;;;;;11.95;7.63;;;9.40;99.90;;;;;;4878464;29;20041;-76
2022/04/24 03:30:44;;;;;;;12.63;6.68;;;9.40;99.90;;;;;;4879686;29;20049;-76
2022/04/24 03:33:10;;;;;;;11.45;7.55;;;9.40;99.90;;;;;;4878798;29;20077;-76
2022/04/24 03:35:36;;;;;;;15.60;6.68;;;9.40;99.90;;;;;;4879875;29;20048;-76
2022/04/24 03:38:02;;;;;;;10.30;7.05;;;9.40;99.90;;;;;;4879755;29;20398;-76
2022/04/24 03:40:28;;;;;;;13.38;7.28;;;9.40;99.90;;;;;;4879505;29;20049;-76
2022/04/24 03:42:54;;;;;;;9.65;6.60;;;9.40;99.90;;;;;;4879534;29;20057;-76
2022/04/24 03:45:19;;;;;;;9.52;6.13;;;9.40;99.90;;;;;;4879813;29;20097;-76
2022/04/24 03:47:47;;;;;;;11.10;6.43;;;9.40;99.90;;;;;;4880126;29;20045;-76
2022/04/24 03:50:14;;;;;;;10.90;6.50;;;9.40;99.90;;;;;;4883449;29;20056;-76
2022/04/24 03:52:40;;;;;;;13.35;6.90;;;9.50;99.90;;;;;;4866777;29;20056;-76
2022/04/24 03:55:06;;;;;;;13.30;7.55;;;9.50;99.90;;;;;;4882148;29;20056;-76
2022/04/24 03:57:33;;;;;;;14.25;7.60;;;9.50;99.90;;;;;;4866714;29;20051;-76
2022/04/24 03:59:58;;;;;;;15.32;7.50;;;9.40;99.90;;;;;;4881995;29;20093;-76
2022/04/24 04:02:24;;;;;;;11.82;6.68;;;9.40;99.90;;;;;;4883384;29;20077;-76
2022/04/24 04:04:50;;;;;;;10.27;7.32;;;9.40;99.90;;;;;;4883048;29;20053;-76
2022/04/24 04:07:16;;;;;;;13.32;7.20;;;9.40;99.90;;;;;;4881646;29;20055;-76
2022/04/24 04:09:41;;;;;;;13.13;7.40;;;9.40;99.90;;;;;;4881713;29;20530;-76
2022/04/24 04:12:08;;;;;;;15.40;7.40;;;9.30;99.90;;;;;;4881633;29;20045;-76
2022/04/24 04:14:33;;;;;;;13.60;8.13;;;9.30;99.90;;;;;;4880462;29;20057;-76
2022/04/24 04:16:59;;;;;;;15.30;7.47;;;9.30;99.90;;;;;;4865727;29;20045;-76
2022/04/24 04:19:25;;;;;;;14.40;7.30;;;9.30;99.90;;;;;;4866036;29;20431;-76
2022/04/24 04:21:50;;;;;;;12.75;6.95;;;9.30;99.90;;;;;;4881553;29;20049;-76
2022/04/24 04:24:16;;;;;;;13.48;7.38;;;9.20;99.90;;;;;;4882688;29;20093;-76
2022/04/24 04:26:42;;;;;;;15.23;7.55;;;9.20;99.90;;;;;;4882758;29;20518;-76
2022/04/24 04:29:08;;;;;;;12.77;7.22;;;9.30;99.90;;;;;;4865803;29;20122;-76
2022/04/24 04:31:34;;;;;;;12.68;8.13;;;9.30;99.90;;;;;;4865842;29;20056;-76
2022/04/24 04:33:59;;;;;;;10.73;6.85;;;9.20;99.90;;;;;;4865713;29;20049;-76
2022/04/24 04:36:25;;;;;;;12.45;8.20;;;9.20;99.90;;;;;;4882709;29;20135;-76
2022/04/24 04:38:50;;;;;;;12.88;7.80;;;9.30;99.90;;;;;;4881193;29;20060;-76
2022/04/24 04:41:16;;;;;;;12.98;7.50;;;9.30;99.90;;;;;;4881134;29;20055;-76
2022/04/24 04:43:42;;;;;;;12.88;7.03;;;9.30;99.90;;;;;;4882271;29;20061;-76
2022/04/24 04:46:07;;;;;;;12.65;5.90;;;9.30;99.90;;;;;;4865652;29;20053;-76
2022/04/24 04:48:34;;;;;;;14.02;7.78;;;9.30;99.90;;;;;;4882516;29;20080;-76
2022/04/24 04:50:59;;;;;;;12.30;8.07;;;9.30;99.90;;;;;;4882324;29;20052;-76
2022/04/24 04:53:25;;;;;;;12.57;7.25;;;9.40;99.90;;;;;;4865906;29;20049;-76
2022/04/24 04:55:51;;;;;;;9.95;7.40;;;9.40;99.90;;;;;;4882345;29;20379;-76
2022/04/24 04:58:17;;;;;;;12.27;6.70;;;9.50;99.90;;;;;;4882291;29;20089;-76
2022/04/24 05:00:42;;;;;;;14.30;7.40;;;9.50;99.90;;;;;;4865285;29;20478;-76
2022/04/24 05:03:08;;;;;;;12.27;7.05;;;9.50;99.90;;;;;;4882136;29;20052;-76
2022/04/24 05:05:34;;;;;;;12.43;7.40;;;9.60;99.90;;;;;;4882172;29;20049;-76
2022/04/24 05:08:00;;;;;;;11.10;6.95;;;9.60;99.90;;;;;;4881941;29;20041;-76
2022/04/24 05:10:25;;;;;;;11.98;7.10;;;9.70;99.90;;;;;;4882039;29;20497;-76
2022/04/24 05:12:51;;;;;;;12.35;6.47;;;9.70;99.90;;;;;;4881860;29;20406;-76
2022/04/24 05:15:19;;;;;;;14.20;6.68;;;9.80;99.90;;;;;;4865251;29;20498;-76
2022/04/24 05:17:44;;;;;;;12.43;6.60;;;9.80;99.90;;;;;;4865196;29;20553;-76
2022/04/24 05:20:11;;;;;;;9.88;6.50;;;9.80;99.90;;;;;;4880469;29;20141;-76
2022/04/24 05:22:38;;;;;;;11.13;6.80;;;9.90;99.90;;;;;;4864869;29;20064;-76
2022/04/24 05:25:05;;;;;;;12.38;6.07;;;9.90;99.90;;;;;;4864818;29;20057;-76
2022/04/24 05:27:31;;;;;;;14.10;5.95;;;10.00;99.90;;;;;;4880319;29;20053;-76
2022/04/24 05:29:58;;;;;;;13.15;6.85;;;10.00;99.90;;;;;;4881504;29;20080;-76
2022/04/24 05:32:24;;;;;;;14.32;6.65;;;10.00;99.90;;;;;;4881936;29;20124;-76
2022/04/24 05:34:49;;;;;;;10.88;5.97;;;10.00;99.90;;;;;;4881151;29;20045;-76
2022/04/24 05:37:15;;;;;;;10.50;5.47;;;10.10;99.90;;;;;;4864917;29;20502;-76
2022/04/24 05:39:41;;;;;;;10.95;5.22;;;10.10;99.90;;;;;;4881642;29;20512;-76
2022/04/24 05:42:07;;;;;;;9.82;4.95;;;10.10;99.90;;;;;;4880265;29;20045;-76
2022/04/24 05:44:32;;;;;;;9.13;5.50;;;10.20;99.90;;;;;;4864489;29;20092;-76
2022/04/24 05:46:59;;;;;;;9.95;4.30;;;10.20;99.90;;;;;;4864468;29;20044;-76
2022/04/24 05:49:25;;;;;;;9.02;4.47;;;10.10;99.90;;;;;;4881207;29;20051;-76
2022/04/24 05:51:51;;;;;;;9.60;3.70;;;10.20;99.90;;;;;;4864606;29;20065;-76
2022/04/24 05:54:16;;;;;;;8.73;4.20;;;10.20;99.90;;;;;;4864747;29;20068;-76
2022/04/24 05:56:42;;;;;;;5.97;3.15;;;10.30;99.90;;;;;;4881236;29;20413;-76
2022/04/24 05:59:11;;;;;;;6.47;3.50;;;10.40;99.90;;;;;;4881138;29;20132;-76
2022/04/24 06:01:36;;;;;;;7.45;2.72;;;10.40;99.90;;;;;;4864510;29;20053;-76
2022/04/24 06:04:02;;;;;;;7.18;2.95;;;10.60;99.90;;;;;;4880929;29;20052;-76
2022/04/24 06:06:30;;;;;;;6.13;2.70;;;10.60;99.90;;;;;;4881108;29;20402;-76
2022/04/24 06:08:57;;;;;;;7.68;3.13;;;10.70;99.90;;;;;;4881109;29;20049;-76
2022/04/24 06:11:22;;;;;;;9.07;2.95;;;10.70;99.90;;;;;;4880491;29;20151;-76
2022/04/24 06:13:48;;;;;;;6.82;2.92;;;10.80;99.90;;;;;;4881011;29;20124;-76
2022/04/24 06:16:14;;;;;;;7.72;3.05;;;10.80;99.90;;;;;;4880731;29;20127;-76
2022/04/24 06:18:39;;;;;;;7.68;2.97;;;10.80;99.90;;;;;;4863893;29;20403;-76
2022/04/24 06:21:05;;;;;;;12.80;4.00;;;10.90;99.90;;;;;;4880858;29;20054;-76
2022/04/24 06:23:31;;;;;;;12.55;3.88;;;10.80;99.90;;;;;;4880586;29;20387;-76
2022/04/24 06:25:58;;;;;;;9.13;3.72;;;10.80;99.90;;;;;;4880904;29;20119;-76
2022/04/24 06:28:24;;;;;;;12.98;4.60;;;10.90;99.90;;;;;;4863755;29;20504;-76
2022/04/24 06:30:50;;;;;;;11.93;3.97;;;10.80;99.90;;;;;;4863619;29;20093;-76
2022/04/24 06:33:17;;;;;;;7.50;2.70;;;10.90;99.90;;;;;;4863880;29;20081;-76
2022/04/24 06:35:45;;;;;;;9.43;3.83;;;10.90;99.90;;;;;;4863955;29;20096;-76
2022/04/24 06:38:11;;;;;;;7.80;3.47;;;10.90;99.90;;;;;;4863686;29;20044;-76
2022/04/24 06:40:37;;;;;;;9.85;3.58;;;10.90;99.90;;;;;;4863576;29;20517;-76
2022/04/24 06:43:05;;;;;;;9.48;3.83;;;11.10;99.90;;;;;;4880080;29;20549;-77
2022/04/24 06:45:36;;;;;;;9.82;3.53;;;11.00;99.90;;;;;;4880176;29;20075;-75
2022/04/24 06:48:09;;;;;;;8.93;3.58;;;11.00;99.90;;;;;;4880411;29;20037;-76
2022/04/24 06:50:35;;;;;;;;;;;10.90;99.90;;;;;;4863847;29;20409;-76
2022/04/24 06:53:03;;;;;;;8.65;3.47;;;11.10;99.90;;;;;;4863370;29;20040;-76
2022/04/24 06:55:31;;;;;;;9.93;3.88;;;11.00;99.90;;;;;;4880291;29;20048;-76
2022/04/24 06:57:57;;;;;;;7.97;3.53;;;11.20;99.90;;;;;;4863367;29;20059;-76
2022/04/24 07:00:25;;;;;;;9.60;3.50;;;11.30;99.90;;;;;;4878704;29;20410;-76
2022/04/24 07:02:51;;;;;;;7.97;3.25;;;11.40;99.90;;;;;;4863484;29;20462;-77
2022/04/24 07:05:20;;;;;;;6.63;2.72;;;11.30;99.90;;;;;;4879848;29;20088;-77
2022/04/24 07:07:46;;;;;;;9.98;3.20;;;11.50;99.90;;;;;;4879900;29;20398;-77
2022/04/24 07:10:12;;;;;;;9.98;3.83;;;11.50;99.90;;;;;;4879840;29;20493;-77
2022/04/24 07:13:04;;;;;;;8.60;2.90;;;11.50;99.90;;;;;;4880092;29;20037;-77
2022/04/24 07:15:32;;;;;;;8.93;3.42;;;11.70;99.90;;;;;;4876905;29;20053;-76
2022/04/24 07:17:58;;;;;;;8.23;2.92;;;11.60;99.90;;;;;;4863379;29;20531;-78
2022/04/24 07:20:24;;;;;;;7.85;3.20;;;11.60;99.90;;;;;;4863309;29;20071;-78
2022/04/24 07:22:52;;;;;;;8.18;3.15;;;11.70;99.90;;;;;;4862256;29;20045;-76
2022/04/24 07:25:23;;;;;;;8.25;3.78;;;11.80;99.90;;;;;;4863231;29;20060;-78
2022/04/24 07:27:50;;;;;;;8.32;3.35;;;11.70;99.90;;;;;;4880600;29;20052;-77
2022/04/24 07:30:17;;;;;;;8.73;3.53;;;12.00;99.90;;;;;;4870959;29;20045;-78
2022/04/24 07:32:48;;;;;;;11.13;3.53;;;12.00;99.90;;;;;;4863006;29;20047;-77
2022/04/24 07:35:17;;;;;;;8.45;3.28;;;11.80;99.90;;;;;;4862627;29;20510;-78
2022/04/24 07:37:44;;;;;;;7.80;2.90;;;11.90;99.90;;;;;;4862930;29;20401;-77
2022/04/24 07:40:12;;;;;;;8.32;2.97;;;11.90;99.90;;;;;;4862913;29;20109;-77
2022/04/24 07:42:47;;;;;;;11.95;3.03;;;11.80;99.90;;;;;;4862509;29;20056;-77
2022/04/24 07:45:17;;;;;;;11.32;3.63;;;12.00;99.90;;;;;;4862933;29;20076;-77
2022/04/24 07:47:45;;;;;;;8.02;3.15;;;11.80;99.90;;;;;;4862940;29;20045;-78
2022/04/24 07:50:11;;;;;;;9.85;3.53;;;12.00;99.90;;;;;;4862519;29;20109;-77
2022/04/24 07:52:36;;;;;;;7.97;3.47;;;12.00;99.90;;;;;;4862599;29;20045;-77
2022/04/24 07:55:02;;;;;;;8.80;4.10;;;12.30;99.90;;;;;;4862894;29;20057;-77
2022/04/24 07:57:28;;;;;;;8.93;3.65;;;12.10;99.90;;;;;;4879353;29;20387;-77
2022/04/24 07:59:53;;;;;;;10.50;4.38;;;12.20;99.90;;;;;;4862554;29;20128;-78
2022/04/24 08:02:19;;;;;;;7.68;3.38;;;12.10;99.90;;;;;;4862657;29;20049;-76
2022/04/24 08:04:44;;;;;;;10.00;4.00;;;12.30;99.90;;;;;;4862459;29;20041;-78
2022/04/24 08:07:10;;;;;;;7.22;3.47;;;12.30;99.90;;;;;;4879159;29;20049;-78
2022/04/24 08:09:36;;;;;;;11.40;3.92;;;12.40;99.90;;;;;;4879301;29;20037;-78
2022/04/24 08:12:01;;;;;;;8.07;3.75;;;12.40;99.90;;;;;;4879065;29;20045;-78
2022/04/24 08:14:27;;;;;;;14.48;5.15;;;12.50;99.90;;;;;;4879252;29;20041;-78
2022/04/24 08:16:53;;;;;;;10.70;4.40;;;12.20;99.90;;;;;;4862631;29;20379;-78
2022/04/24 08:19:18;;;;;;;7.13;3.33;;;12.30;99.90;;;;;;4878952;29;20049;-78
2022/04/24 08:21:44;;;;;;;11.82;4.00;;;12.50;99.90;;;;;;4878887;29;20110;-77
2022/04/24 08:24:10;;;;;;;9.23;3.75;;;12.50;99.90;;;;;;4862607;29;20049;-81
2022/04/24 08:26:36;;;;;;;9.68;4.65;;;12.30;99.90;;;;;;4878857;29;20075;-77
2022/04/24 08:29:01;;;;;;;14.43;3.80;;;12.20;99.90;;;;;;4862233;29;20486;-77
2022/04/24 08:31:27;;;;;;;7.38;3.63;;;12.40;99.90;;;;;;4886849;29;20048;-77
2022/04/24 08:33:57;;;;;;;10.52;3.40;;;12.60;99.90;;;;;;4898350;29;20040;-77
2022/04/24 08:36:23;;;;;;;10.70;4.00;;;12.40;99.90;;;;;;4884323;29;20135;-77
2022/04/24 08:38:49;;;;;;;7.20;3.33;;;12.80;99.90;;;;;;4901183;29;20049;-77
2022/04/24 08:41:17;;;;;;;9.15;3.33;;;12.60;99.90;;;;;;4900849;29;20452;-77
2022/04/24 08:43:44;;;;;;;10.65;3.03;;;12.50;99.90;;;;;;4890702;29;20492;-76
2022/04/24 08:46:10;;;;;;;8.10;3.15;;;12.70;99.90;;;;;;4899645;29;20135;-76
2022/04/24 08:48:37;;;;;;;8.82;3.08;;;12.90;99.90;;;;;;4900829;29;20131;-76
2022/04/24 08:51:05;;;;;;;6.50;2.75;;;13.00;99.90;;;;;;4900846;29;20104;-76
2022/04/24 08:53:33;;;;;;;6.93;3.05;;;12.90;99.90;;;;;;4899490;29;20096;-76
2022/04/24 08:55:59;;;;;;;8.95;3.17;;;13.10;99.90;;;;;;4896824;29;20044;-77
2022/04/24 08:58:24;;;;;;;8.88;2.78;;;13.10;99.90;;;;;;4891903;29;20051;-77
2022/04/24 09:00:50;;;;;;;8.90;2.55;;;13.10;99.90;;;;;;4886968;29;20055;-77
2022/04/24 09:03:16;;;;;;;5.20;2.20;;;13.10;99.90;;;;;;4889898;29;20077;-76
2022/04/24 09:05:41;;;;;;;7.85;3.08;;;13.20;99.90;;;;;;4899342;29;20104;-76
2022/04/24 09:08:09;;;;;;;6.10;2.70;;;13.20;99.90;;;;;;4900687;29;20044;-76
2022/04/24 09:11:07;;;;;;;7.00;2.55;;;13.30;99.90;;;;;;4899875;29;20056;-76
2022/04/24 09:16:35;;;;;;;8.23;2.95;;;13.50;99.90;;;;;;4900721;29;20059;-76
2022/04/24 09:19:00;;;;;;;8.32;3.40;;;13.00;99.90;;;;;;4899076;29;20493;-76
2022/04/24 09:21:26;;;;;;;8.80;3.47;;;12.90;99.90;;;;;;4899264;29;20134;-76
2022/04/24 09:23:52;;;;;;;9.32;2.75;;;13.10;99.90;;;;;;4899186;29;20049;-77
2022/04/24 09:26:17;;;;;;;10.15;3.15;;;13.20;99.90;;;;;;4898928;29;20424;-77
2022/04/24 09:28:43;;;;;;;10.48;3.13;;;13.20;99.90;;;;;;4899121;29;20049;-76
2022/04/24 09:31:09;;;;;;;8.00;2.90;;;13.30;99.90;;;;;;4897531;29;20049;-76
2022/04/24 09:33:42;;;;;;;12.63;3.35;;;13.60;99.90;;;;;;4890351;29;20050;-76
2022/04/24 09:36:09;;;;;;;9.45;3.13;;;13.60;99.90;;;;;;4899068;29;20060;-76
2022/04/24 09:38:42;;;;;;;12.98;3.28;;;13.60;99.90;;;;;;4898962;29;20508;-76
2022/04/24 09:41:22;;;;;;;11.68;4.03;;;13.70;99.90;;;;;;4897558;29;20054;-76
2022/04/24 09:43:49;;;;;;;10.20;3.83;;;13.50;99.90;;;;;;4899713;29;20131;-76
2022/04/24 09:46:29;;;;;;;14.43;4.22;;;13.40;99.90;;;;;;4882138;29;20092;-76
2022/04/24 09:49:00;;;;;;;13.82;4.43;;;13.50;99.90;;;;;;4900029;29;20040;-76
2022/04/24 09:51:26;;;;;;;9.73;3.72;;;13.40;99.90;;;;;;4899861;29;20048;-76
2022/04/24 09:53:57;;;;;;;13.07;4.07;;;13.40;99.90;;;;;;4882781;29;20076;-76
2022/04/24 09:56:26;;;;;;;10.05;3.78;;;13.40;99.90;;;;;;4883114;29;20048;-76
2022/04/24 09:58:52;;;;;;;12.85;4.32;;;13.30;99.90;;;;;;4882922;29;20060;-76
2022/04/24 10:01:18;;;;;;;11.43;4.45;;;13.60;99.90;;;;;;4882428;29;20067;-76
2022/04/24 10:03:45;;;;;;;9.45;3.72;;;13.30;99.90;;;;;;4882665;29;20108;-76
2022/04/24 10:06:11;;;;;;;10.60;4.35;;;13.20;99.90;;;;;;4882654;29;20049;-75
2022/04/24 10:08:38;;;;;;;9.77;4.13;;;12.90;99.90;;;;;;4882710;29;20052;-75
2022/04/24 10:11:07;;;;;;;10.20;3.83;;;13.20;99.90;;;;;;4882678;29;20826;-76
2022/04/24 10:13:39;;;;;;;9.18;3.65;;;13.20;99.90;;;;;;4882800;29;20056;-77
2022/04/24 10:16:39;;;;;;;11.85;3.65;;;13.40;99.90;;;;;;4881814;29;20536;-77
2022/04/24 10:19:17;;;;;;;8.50;3.45;;;13.70;99.90;;;;;;4882368;29;20554;-77
2022/04/24 10:21:54;;;;;;;8.75;3.45;;;13.70;99.90;;;;;;4882392;29;20537;-76
2022/04/24 10:24:20;;;;;;;11.50;4.07;;;13.70;99.90;;;;;;4882296;29;20457;-76
2022/04/24 10:26:57;;;;;;;9.35;4.25;;;13.60;99.90;;;;;;4882522;29;20040;-76
2022/04/24 10:29:24;;;;;;;9.13;3.85;;;13.70;99.90;;;;;;4882061;29;20087;-77
2022/04/24 10:31:50;;;;;;;8.70;4.03;;;13.40;99.90;;;;;;4882346;29;20098;-76
2022/04/24 10:34:16;;;;;;;9.93;4.47;;;13.50;99.90;;;;;;4882352;29;20505;-76
2022/04/24 10:37:01;;;;;;;8.75;4.55;;;13.50;99.90;;;;;;4882042;29;20052;-77
2022/04/24 10:39:35;;;;;;;11.13;4.55;;;13.50;99.90;;;;;;4882070;29;20048;-76
2022/04/24 10:42:11;;;;;;;11.80;5.57;;;13.60;99.90;;;;;;4881420;29;20128;-76
2022/04/24 10:44:48;;;;;;;10.65;4.25;;;13.30;99.90;;;;;;4898664;29;20111;-76
2022/04/24 10:47:14;;;;;;;14.63;4.43;;;13.30;99.90;;;;;;4866687;29;20063;-76
2022/04/24 10:49:40;;;;;;;11.13;4.57;;;13.40;99.90;;;;;;4882013;29;20060;-76
2022/04/24 10:52:06;;;;;;;10.05;4.30;;;13.30;99.90;;;;;;4881701;29;20513;-78
2022/04/24 10:54:40;;;;;;;10.50;4.85;;;13.40;99.90;;;;;;4892167;29;20489;-78
2022/04/24 10:57:20;;;;;;;11.68;5.25;;;13.50;99.90;;;;;;4863253;29;20052;-79
2022/04/24 10:59:55;;;;;;;15.68;4.95;;;13.50;99.90;;;;;;4863113;29;20064;-79
2022/04/24 11:02:28;;;;;;;10.82;4.68;;;13.30;99.90;;;;;;4863116;29;20056;-78
2022/04/24 11:05:00;;;;;;;9.98;5.05;;;13.20;99.90;;;;;;4863324;29;20113;-78
2022/04/24 11:07:26;;;;;;;8.35;4.82;;;13.20;99.90;;;;;;4863274;29;20077;-78
2022/04/24 11:10:03;;;;;;;9.95;5.45;;;13.20;99.90;;;;;;4863039;29;20513;-78
2022/04/24 11:12:31;;;;;;;10.15;5.35;;;13.10;99.90;;;;;;4862838;29;20421;-80
2022/04/24 11:15:21;;;;;;;11.68;5.40;;;13.00;99.90;;;;;;4862912;29;20045;-78
2022/04/24 11:17:47;;;;;;;11.23;5.90;;;13.20;99.90;;;;;;4862305;29;20073;-79
2022/04/24 11:20:15;;;;;;;10.52;6.07;;;13.30;99.90;;;;;;4879760;29;20048;-78
2022/04/24 11:22:46;;;;;;;10.60;5.32;;;12.90;99.90;;;;;;4863079;29;20127;-78
2022/04/24 11:25:17;;;;;;;10.80;5.78;;;12.90;99.90;;;;;;4863029;29;20069;-78
2022/04/24 11:27:46;;;;;;;11.20;5.20;;;12.70;99.90;;;;;;4879620;29;20047;-78
2022/04/24 11:30:16;;;;;;;14.57;5.50;;;13.00;99.90;;;;;;4879180;29;20480;-78
2022/04/24 11:32:53;;;;;;;10.20;5.88;;;13.00;99.90;;;;;;4879457;29;20053;-78
2022/04/24 11:35:18;;;;;;;7.85;5.10;;;12.90;99.90;;;;;;4879364;29;20497;-78
2022/04/24 11:37:44;;;;;;;10.73;5.95;;;12.80;99.90;;;;;;4879599;29;20109;-78
2022/04/24 11:40:10;;;;;;;9.10;5.55;;;13.20;99.90;;;;;;4879339;29;20073;-78
2022/04/24 11:42:36;;;;;;;12.27;6.20;;;13.30;99.90;;;;;;4879236;29;20108;-78
2022/04/24 11:50:47;;;;;;;;;;;13.20;99.90;;;;;;4862857;29;20124;-77
2022/04/24 11:53:13;;;;;;;10.45;5.03;;;13.10;99.90;;;;;;4879407;29;19924;-78
2022/04/24 11:58:23;;;;;;;11.27;5.38;;;13.10;99.90;;;;;;4862441;29;20053;-79
2022/04/24 12:00:48;;;;;;;11.95;6.35;;;13.20;99.90;;;;;;4862744;29;20055;-78
2022/04/24 12:03:14;;;;;;;12.88;5.57;;;13.30;99.90;;;;;;4862468;29;20141;-78
2022/04/24 12:05:42;;;;;;;12.52;6.35;;;13.20;99.90;;;;;;4879459;29;20052;-78
2022/04/24 12:08:11;;;;;;;12.23;6.53;;;13.10;99.90;;;;;;4879346;29;20087;-78
2022/04/24 12:10:43;;;;;;;10.30;5.63;;;13.10;99.90;;;;;;4882205;29;20112;-78
2022/04/24 12:13:09;;;;;;;10.88;5.32;;;12.70;99.90;;;;;;4882725;29;20053;-78
2022/04/24 12:15:35;;;;;;;13.30;5.35;;;13.00;99.90;;;;;;4882937;29;20045;-78
2022/04/24 12:18:01;;;;;;;10.48;5.03;;;12.90;99.90;;;;;;4882876;29;20049;-78
2022/04/24 12:20:41;;;;;;;9.25;5.18;;;13.00;99.90;;;;;;4882638;29;20088;-78
2022/04/24 12:23:15;;;;;;;8.10;5.03;;;13.20;99.90;;;;;;4865814;29;20061;-78
2022/04/24 12:25:48;;;;;;;9.43;5.05;;;12.80;99.90;;;;;;4882687;29;20055;-79
2022/04/24 12:28:33;;;;;;;11.15;4.97;;;13.00;99.90;;;;;;4882680;29;20041;-78
2022/04/24 12:31:01;;;;;;;10.80;5.22;;;13.10;99.90;;;;;;4865735;29;20505;-78
2022/04/24 12:33:27;;;;;;;11.05;5.00;;;13.10;99.90;;;;;;4865934;29;20067;-78
2022/04/24 12:35:54;;;;;;;9.63;5.55;;;13.00;99.90;;;;;;4865521;29;20045;-78
2022/04/24 12:38:22;;;;;;;11.15;5.22;;;12.80;99.90;;;;;;4865589;29;20041;-78
2022/04/24 12:40:59;;;;;;;10.38;4.78;;;13.10;99.90;;;;;;4865715;29;20064;-78
2022/04/24 12:43:30;;;;;;;9.23;4.68;;;13.10;99.90;;;;;;4882216;29;20084;-78
2022/04/24 12:45:57;;;;;;;8.95;4.97;;;13.10;99.90;;;;;;4865420;29;20064;-78
2022/04/24 12:48:23;;;;;;;10.68;4.97;;;13.20;99.90;;;;;;4865571;29;20506;-78
2022/04/24 12:50:53;;;;;;;15.23;5.22;;;12.90;99.90;;;;;;4882157;29;20048;-78
2022/04/24 12:53:20;;;;;;;7.10;4.13;;;13.10;99.90;;;;;;4865329;29;20053;-78
2022/04/24 12:55:47;;;;;;;8.32;5.15;;;13.00;99.90;;;;;;4865288;29;20044;-77
2022/04/24 12:58:14;;;;;;;9.02;4.90;;;13.10;99.90;;;;;;4865460;29;20406;-78